x

Molasses Reef, Fl (mlrf1) Weather Station

10:00am - Thu 2nd Oct 2014 All times are EDT. -4 hours from GMT.

  • Wind
    3mph, 5mph gusts
  • Sea Temp 85°f
  • Air Temp 83°f
  • Sea Pressure 1017.5mb
  • Molasses Reef, Fl
  • Molasses Reef, Fl

More Historic Weather Station data

Upgrade to MSW Pro to gain access to the past 30 days of data for over 8000 Wavebouys and Weather Stations around the globe.

Join Pro

Comparision Forecast

View Surf forecast
   
Thu 10/02 10:00am 3 5 mph 1017.5mb 85f 83f
9:00am 2 3 mph 1017.3mb 85f 83f
8:00am 7 8 mph 1016.4mb 85f 81f
7:00am 1 2 mph 1015.9mb 85f 80f
6:00am  -  1 mph 1015.1mb 85f 83f
5:00am 3 5 mph 1014.6mb 85f 83f
4:00am 5 6 mph 1014.4mb 85f 83f
3:00am 7
mph
1014.7mb 85f 82f
2:00am 3 5 mph 1015mb 85f 84f
1:00am 5 6 mph 1015.4mb 85f 84f
12:00am 6
mph
1015.4mb 86f 85f
Wed 10/01 11:00pm 6 7 mph 1015.6mb 86f 85f
10:00pm 7 8 mph 1015.8mb 86f 85f
9:00pm 10 11 mph 1014.8mb 86f 85f
8:00pm 14 15 mph 1014.3mb 86f 83f
7:00pm 10 11 mph 1013.9mb 86f 85f
6:00pm 9 10 mph 1012.9mb 86f 85f
5:00pm 9 10 mph 1012.5mb 86f 85f
4:00pm 10 11 mph 1013mb 86f 85f
3:00pm 10 11 mph 1013.3mb 86f 84f
2:00pm 11 13 mph 1013.7mb 86f 84f
1:00pm 11
mph
1014.4mb 86f 84f
12:00pm 10 11 mph 1014.8mb 86f 84f
11:00am 11 13 mph 1014.7mb 85f 84f
10:00am 11 13 mph 1014.5mb 85f 83f
9:00am 11 13 mph 1013.9mb 85f 83f
8:00am 11 14 mph 1013.4mb 85f 83f
7:00am 11 14 mph 1013mb 85f 83f
6:00am 10 11 mph 1012.3mb 85f 83f
5:00am 10
mph
1012mb 85f 83f
4:00am 10 11 mph 1011.8mb 85f 83f
3:00am 6
mph
1012mb 85f 84f
2:00am 7 8 mph 1012.3mb 85f 84f
1:00am 6
mph
1012.4mb 85f 84f
12:00am 7 8 mph 1012.6mb 85f 84f
Tue 09/30 11:00pm 9 10 mph 1012.8mb 85f 84f
10:00pm 10
mph
1012.4mb 85f 84f
9:00pm 11 13 mph 1012mb 85f 85f
8:00pm 13 14 mph 1011.2mb 86f 84f
7:00pm 16 17 mph 1010.7mb 86f 85f
6:00pm 15 18 mph 1010.5mb 86f 86f
5:00pm 15 17 mph 1010.5mb 86f 85f
4:00pm 15 17 mph 1010.4mb 86f 84f
3:00pm 17 18 mph 1010.5mb 86f 84f
2:00pm 15 16 mph 1011.1mb 86f 84f
1:00pm 13 14 mph 1012mb 86f 84f
12:00pm 15 16 mph 1012.5mb 86f 83f
11:00am 14 15 mph 1012.5mb 85f 83f
10:00am 14 15 mph 1012.4mb 85f 83f
9:00am 11 13 mph 1012.3mb 85f 83f
8:00am 11 13 mph 1011.8mb 85f 83f
7:00am 9 10 mph 1011mb 85f 83f
6:00am 6
mph
1010.9mb 85f 82f
5:00am 7 8 mph 1010.5mb 85f 82f
4:00am 6 7 mph 1010.4mb 85f 83f
3:00am 5
mph
1010.8mb 85f 83f
2:00am 3
mph
1011.3mb 85f 83f
1:00am 2 3 mph 1011.8mb 85f 83f
12:00am 3 5 mph 1012mb 85f 82f
Mon 09/29 11:00pm 3 5 mph 1012.3mb 86f 82f
10:00pm 3 5 mph 1012.3mb 86f 84f
9:00pm 5 7 mph 1012.3mb 86f 84f
8:00pm 5
mph
1011.5mb 86f 83f
7:00pm 3 5 mph 1011.1mb 86f 83f
6:00pm 6 7 mph 1010.8mb 86f 83f
5:00pm 7 8 mph 1010.5mb 86f 83f
4:00pm 8 9 mph 1010.7mb 86f 84f
3:00pm 7
mph
1010.8mb 86f 84f
2:00pm 6 7 mph 1011.7mb 85f 83f
1:00pm 6 8 mph 1012.4mb 85f 83f
12:00pm 9 10 mph 1013.1mb 85f 84f
11:00am 9
mph
1013.2mb 85f 84f
10:00am 7 8 mph 1013.2mb 85f 83f
9:00am 8 9 mph 1013.1mb 85f 84f
8:00am 8 9 mph 1012.6mb 85f 83f
7:00am 5 6 mph 1012.4mb 85f 82f
6:00am 8 9 mph 1012.2mb 85f 83f
5:00am 8 9 mph 1012.2mb 85f 82f
4:00am 10 11 mph 1012mb 85f 83f
3:00am 9 11 mph 1012.2mb 85f 83f
2:00am 9 10 mph 1012.7mb 85f 83f
1:00am 11 13 mph 1013.3mb 85f 83f
12:00am 11
mph
1013.9mb 85f 83f
Sun 09/28 11:00pm 10 11 mph 1014.1mb 85f 83f
10:00pm 9
mph
1014.3mb 85f 83f
9:00pm 9
mph
1014.1mb 85f 83f
8:00pm 8 9 mph 1013.4mb 86f 83f
7:00pm 9 10 mph 1012.7mb 86f 83f
6:00pm 9 10 mph 1012.5mb 86f 84f
5:00pm 10 11 mph 1012.5mb 86f 84f
4:00pm 11 13 mph 1012.9mb 86f 84f